ESOW/VST METAR and TAF weather

Enter ICAO airport designator
Station Type Date Time Source
ESOW METAR 2020/08/10 23:50 UTC NOAA

ESOW 102350Z AUTO 36005KT 9999 NCD 09/07 Q1027


Station Type Date Time Source
ESOW Decoded METAR 2020/08/10 23:50 UTC NOAA

Vasteras / Hasslo, Sweden (ESOW) 59-35N 016-38E 31M
Aug 10, 2020 - 07:50 PM EDT / 2020.08.10 2350 UTC
Wind: from the N (360 degrees) at 6 MPH (5 KT):0
Visibility: greater than 7 mile(s):0
Temperature: 48 F (9 C)
Dew Point: 44 F (7 C)
Relative Humidity: 87%
Pressure (altimeter): 30.33 in. Hg (1027 hPa)
ob: ESOW 102350Z AUTO 36005KT 9999 NCD 09/07 Q1027
cycle: 0

Station Type Date Time Source
ESOW TAF 2018/11/18 12:33 UTC NOAA

TAF ESOW 181130Z 1812/1914 02015KT 9999 BKN020
TEMPO 1812/1814 02015G25KT

Example: see airport list